sensor_id;sensor_type;location;lat;lon;timestamp;temperature;humidity
20929;DHT22;21895;47.072;15.132;2023-07-13T00:01:53;20.40;99.90
20929;DHT22;21895;47.072;15.132;2023-07-13T00:04:22;20.40;99.90
20929;DHT22;21895;47.072;15.132;2023-07-13T00:06:51;20.40;99.90
20929;DHT22;21895;47.072;15.132;2023-07-13T00:09:19;20.40;99.90
20929;DHT22;21895;47.072;15.132;2023-07-13T00:11:54;20.50;99.90
20929;DHT22;21895;47.072;15.132;2023-07-13T00:14:23;20.50;99.90
20929;DHT22;21895;47.072;15.132;2023-07-13T00:16:50;20.60;99.90
20929;DHT22;21895;47.072;15.132;2023-07-13T00:19:17;20.50;99.90
20929;DHT22;21895;47.072;15.132;2023-07-13T00:21:44;20.50;99.90
20929;DHT22;21895;47.072;15.132;2023-07-13T00:24:17;20.50;99.90
20929;DHT22;21895;47.072;15.132;2023-07-13T00:26:49;20.50;99.90
20929;DHT22;21895;47.072;15.132;2023-07-13T00:29:16;20.50;99.90
20929;DHT22;21895;47.072;15.132;2023-07-13T00:31:42;20.50;99.90
20929;DHT22;21895;47.072;15.132;2023-07-13T00:34:09;20.40;99.90
20929;DHT22;21895;47.072;15.132;2023-07-13T00:36:36;20.30;99.90
20929;DHT22;21895;47.072;15.132;2023-07-13T00:39:03;20.30;99.90
20929;DHT22;21895;47.072;15.132;2023-07-13T00:41:30;20.20;99.90
20929;DHT22;21895;47.072;15.132;2023-07-13T00:43:57;20.20;99.90
20929;DHT22;21895;47.072;15.132;2023-07-13T00:46:27;20.20;99.90
20929;DHT22;21895;47.072;15.132;2023-07-13T00:48:59;20.10;99.90
20929;DHT22;21895;47.072;15.132;2023-07-13T00:51:37;20.00;99.90
20929;DHT22;21895;47.072;15.132;2023-07-13T00:54:11;20.00;99.90
20929;DHT22;21895;47.072;15.132;2023-07-13T00:56:43;20.10;99.90
20929;DHT22;21895;47.072;15.132;2023-07-13T00:59:13;20.40;99.90
20929;DHT22;21895;47.072;15.132;2023-07-13T01:01:42;20.30;99.90
20929;DHT22;21895;47.072;15.132;2023-07-13T01:04:10;20.30;99.90
20929;DHT22;21895;47.072;15.132;2023-07-13T01:06:37;20.20;99.90
20929;DHT22;21895;47.072;15.132;2023-07-13T01:09:09;20.20;99.90
20929;DHT22;21895;47.072;15.132;2023-07-13T01:11:38;20.10;99.90
20929;DHT22;21895;47.072;15.132;2023-07-13T01:14:05;20.10;99.90
20929;DHT22;21895;47.072;15.132;2023-07-13T01:16:33;20.30;99.90
20929;DHT22;21895;47.072;15.132;2023-07-13T01:19:05;20.40;99.90
20929;DHT22;21895;47.072;15.132;2023-07-13T01:21:41;20.30;99.90
20929;DHT22;21895;47.072;15.132;2023-07-13T01:24:09;20.30;99.90
20929;DHT22;21895;47.072;15.132;2023-07-13T01:26:36;20.30;99.90
20929;DHT22;21895;47.072;15.132;2023-07-13T01:29:02;20.30;99.90
20929;DHT22;21895;47.072;15.132;2023-07-13T01:31:29;20.30;99.90
20929;DHT22;21895;47.072;15.132;2023-07-13T01:33:55;20.20;99.90
20929;DHT22;21895;47.072;15.132;2023-07-13T01:36:23;20.00;99.90
20929;DHT22;21895;47.072;15.132;2023-07-13T01:38:50;19.80;99.90
20929;DHT22;21895;47.072;15.132;2023-07-13T01:41:16;19.70;99.90
20929;DHT22;21895;47.072;15.132;2023-07-13T01:43:43;19.70;99.90
20929;DHT22;21895;47.072;15.132;2023-07-13T01:46:12;19.80;99.90
20929;DHT22;21895;47.072;15.132;2023-07-13T01:48:42;19.90;99.90
20929;DHT22;21895;47.072;15.132;2023-07-13T01:51:09;19.90;99.90
20929;DHT22;21895;47.072;15.132;2023-07-13T01:53:35;20.00;99.90
20929;DHT22;21895;47.072;15.132;2023-07-13T01:56:02;20.20;99.90
20929;DHT22;21895;47.072;15.132;2023-07-13T01:58:28;20.30;99.90
20929;DHT22;21895;47.072;15.132;2023-07-13T02:00:55;20.40;99.90
20929;DHT22;21895;47.072;15.132;2023-07-13T02:03:21;20.60;99.90
20929;DHT22;21895;47.072;15.132;2023-07-13T02:05:48;20.60;99.90
20929;DHT22;21895;47.072;15.132;2023-07-13T02:08:15;20.60;99.90
20929;DHT22;21895;47.072;15.132;2023-07-13T02:10:41;20.50;99.90
20929;DHT22;21895;47.072;15.132;2023-07-13T02:13:08;20.70;99.90
20929;DHT22;21895;47.072;15.132;2023-07-13T02:15:38;20.70;99.90
20929;DHT22;21895;47.072;15.132;2023-07-13T02:18:07;20.50;99.90
20929;DHT22;21895;47.072;15.132;2023-07-13T02:20:33;20.30;99.90
20929;DHT22;21895;47.072;15.132;2023-07-13T02:23:00;20.20;99.90
20929;DHT22;21895;47.072;15.132;2023-07-13T02:25:26;20.20;99.90
20929;DHT22;21895;47.072;15.132;2023-07-13T02:27:53;20.20;99.90
20929;DHT22;21895;47.072;15.132;2023-07-13T02:30:20;20.30;99.90
20929;DHT22;21895;47.072;15.132;2023-07-13T02:32:46;20.30;99.90
20929;DHT22;21895;47.072;15.132;2023-07-13T02:35:13;20.30;99.90
20929;DHT22;21895;47.072;15.132;2023-07-13T02:37:39;20.00;99.90
20929;DHT22;21895;47.072;15.132;2023-07-13T02:40:07;19.90;99.90
20929;DHT22;21895;47.072;15.132;2023-07-13T02:42:35;19.80;99.90
20929;DHT22;21895;47.072;15.132;2023-07-13T02:45:06;19.80;99.90
20929;DHT22;21895;47.072;15.132;2023-07-13T02:47:35;19.70;99.90
20929;DHT22;21895;47.072;15.132;2023-07-13T02:50:02;19.70;99.90
20929;DHT22;21895;47.072;15.132;2023-07-13T02:52:29;19.70;99.90
20929;DHT22;21895;47.072;15.132;2023-07-13T02:54:56;19.70;99.90
20929;DHT22;21895;47.072;15.132;2023-07-13T02:57:22;19.80;99.90
20929;DHT22;21895;47.072;15.132;2023-07-13T02:59:49;19.80;99.90
20929;DHT22;21895;47.072;15.132;2023-07-13T03:02:16;19.80;99.90
20929;DHT22;21895;47.072;15.132;2023-07-13T03:04:42;19.90;99.90
20929;DHT22;21895;47.072;15.132;2023-07-13T03:07:09;19.80;99.90
20929;DHT22;21895;47.072;15.132;2023-07-13T03:09:35;19.80;99.90
20929;DHT22;21895;47.072;15.132;2023-07-13T03:12:02;19.80;99.90
20929;DHT22;21895;47.072;15.132;2023-07-13T03:14:29;19.90;99.90
20929;DHT22;21895;47.072;15.132;2023-07-13T03:16:56;19.80;99.90
20929;DHT22;21895;47.072;15.132;2023-07-13T03:19:23;19.60;99.90
20929;DHT22;21895;47.072;15.132;2023-07-13T03:21:49;19.50;99.90
20929;DHT22;21895;47.072;15.132;2023-07-13T03:24:16;19.60;99.90
20929;DHT22;21895;47.072;15.132;2023-07-13T03:26:42;19.50;99.90
20929;DHT22;21895;47.072;15.132;2023-07-13T03:29:09;19.60;99.90
20929;DHT22;21895;47.072;15.132;2023-07-13T03:31:37;19.50;99.90
20929;DHT22;21895;47.072;15.132;2023-07-13T03:34:04;19.50;99.90
20929;DHT22;21895;47.072;15.132;2023-07-13T03:36:32;19.40;99.90
20929;DHT22;21895;47.072;15.132;2023-07-13T03:39:03;19.30;99.90
20929;DHT22;21895;47.072;15.132;2023-07-13T03:41:30;19.30;99.90
20929;DHT22;21895;47.072;15.132;2023-07-13T03:43:57;19.30;99.90
20929;DHT22;21895;47.072;15.132;2023-07-13T03:46:24;19.30;99.90
20929;DHT22;21895;47.072;15.132;2023-07-13T03:48:51;19.30;99.90
20929;DHT22;21895;47.072;15.132;2023-07-13T03:51:18;19.20;99.90
20929;DHT22;21895;47.072;15.132;2023-07-13T03:53:46;19.30;99.90
20929;DHT22;21895;47.072;15.132;2023-07-13T03:56:15;19.30;99.90
20929;DHT22;21895;47.072;15.132;2023-07-13T03:58:44;19.40;99.90
20929;DHT22;21895;47.072;15.132;2023-07-13T04:01:13;19.50;99.90
20929;DHT22;21895;47.072;15.132;2023-07-13T04:03:40;19.50;99.90
20929;DHT22;21895;47.072;15.132;2023-07-13T04:06:17;19.60;99.90
20929;DHT22;21895;47.072;15.132;2023-07-13T04:08:52;19.60;99.90
20929;DHT22;21895;47.072;15.132;2023-07-13T04:11:22;19.80;99.90
20929;DHT22;21895;47.072;15.132;2023-07-13T04:13:53;19.90;99.90
20929;DHT22;21895;47.072;15.132;2023-07-13T04:16:20;19.60;99.90
20929;DHT22;21895;47.072;15.132;2023-07-13T04:18:48;19.60;99.90
20929;DHT22;21895;47.072;15.132;2023-07-13T04:21:16;19.60;99.90
20929;DHT22;21895;47.072;15.132;2023-07-13T04:23:42;19.60;99.90
20929;DHT22;21895;47.072;15.132;2023-07-13T04:26:09;19.60;99.90
20929;DHT22;21895;47.072;15.132;2023-07-13T04:28:36;19.70;99.90
20929;DHT22;21895;47.072;15.132;2023-07-13T04:31:04;20.00;99.90
20929;DHT22;21895;47.072;15.132;2023-07-13T04:33:30;20.00;99.90
20929;DHT22;21895;47.072;15.132;2023-07-13T04:35:57;20.00;99.90
20929;DHT22;21895;47.072;15.132;2023-07-13T04:38:27;19.90;99.90
20929;DHT22;21895;47.072;15.132;2023-07-13T04:40:57;20.00;99.90
20929;DHT22;21895;47.072;15.132;2023-07-13T04:43:25;20.00;99.90
20929;DHT22;21895;47.072;15.132;2023-07-13T04:45:52;20.00;99.90
20929;DHT22;21895;47.072;15.132;2023-07-13T04:48:19;20.10;99.90
20929;DHT22;21895;47.072;15.132;2023-07-13T04:50:47;20.20;99.90
20929;DHT22;21895;47.072;15.132;2023-07-13T04:53:20;20.60;99.90
20929;DHT22;21895;47.072;15.132;2023-07-13T04:55:46;20.70;99.90
20929;DHT22;21895;47.072;15.132;2023-07-13T04:58:13;20.40;99.90
20929;DHT22;21895;47.072;15.132;2023-07-13T05:00:39;20.30;99.90
20929;DHT22;21895;47.072;15.132;2023-07-13T05:03:06;20.30;99.90
20929;DHT22;21895;47.072;15.132;2023-07-13T05:05:33;20.30;99.90
20929;DHT22;21895;47.072;15.132;2023-07-13T05:08:00;20.30;99.90
20929;DHT22;21895;47.072;15.132;2023-07-13T05:10:26;20.50;99.90
20929;DHT22;21895;47.072;15.132;2023-07-13T05:12:53;20.40;99.90
20929;DHT22;21895;47.072;15.132;2023-07-13T05:15:22;20.40;99.90
20929;DHT22;21895;47.072;15.132;2023-07-13T05:17:49;20.40;99.90
20929;DHT22;21895;47.072;15.132;2023-07-13T05:20:17;20.70;99.90
20929;DHT22;21895;47.072;15.132;2023-07-13T05:22:45;21.00;99.90
20929;DHT22;21895;47.072;15.132;2023-07-13T05:25:14;21.20;99.90
20929;DHT22;21895;47.072;15.132;2023-07-13T05:27:41;21.50;99.90
20929;DHT22;21895;47.072;15.132;2023-07-13T05:30:08;21.80;99.90
20929;DHT22;21895;47.072;15.132;2023-07-13T05:32:37;22.10;99.90
20929;DHT22;21895;47.072;15.132;2023-07-13T05:35:04;22.30;99.90
20929;DHT22;21895;47.072;15.132;2023-07-13T05:37:30;22.60;99.90
20929;DHT22;21895;47.072;15.132;2023-07-13T05:39:57;22.80;99.90
20929;DHT22;21895;47.072;15.132;2023-07-13T05:42:23;23.00;99.90
20929;DHT22;21895;47.072;15.132;2023-07-13T05:44:50;23.00;99.90
20929;DHT22;21895;47.072;15.132;2023-07-13T05:47:17;23.00;99.90
20929;DHT22;21895;47.072;15.132;2023-07-13T05:49:43;23.20;99.90
20929;DHT22;21895;47.072;15.132;2023-07-13T05:52:10;23.30;99.90
20929;DHT22;21895;47.072;15.132;2023-07-13T05:54:36;23.40;99.90
20929;DHT22;21895;47.072;15.132;2023-07-13T05:57:03;23.60;99.90
20929;DHT22;21895;47.072;15.132;2023-07-13T05:59:30;23.60;99.90
20929;DHT22;21895;47.072;15.132;2023-07-13T06:01:56;24.00;99.90
20929;DHT22;21895;47.072;15.132;2023-07-13T06:04:23;24.10;99.90
20929;DHT22;21895;47.072;15.132;2023-07-13T06:06:50;23.90;99.90
20929;DHT22;21895;47.072;15.132;2023-07-13T06:09:16;24.10;99.90
20929;DHT22;21895;47.072;15.132;2023-07-13T06:11:43;24.60;99.90
20929;DHT22;21895;47.072;15.132;2023-07-13T06:14:10;24.80;99.90
20929;DHT22;21895;47.072;15.132;2023-07-13T06:16:37;24.90;99.90
20929;DHT22;21895;47.072;15.132;2023-07-13T06:19:04;25.00;99.90
20929;DHT22;21895;47.072;15.132;2023-07-13T06:21:30;25.10;99.90
20929;DHT22;21895;47.072;15.132;2023-07-13T06:23:57;25.20;99.90
20929;DHT22;21895;47.072;15.132;2023-07-13T06:26:23;25.40;99.90
20929;DHT22;21895;47.072;15.132;2023-07-13T06:28:50;25.50;99.90
20929;DHT22;21895;47.072;15.132;2023-07-13T06:31:17;25.40;99.90
20929;DHT22;21895;47.072;15.132;2023-07-13T06:33:44;25.50;99.90
20929;DHT22;21895;47.072;15.132;2023-07-13T06:36:10;25.70;99.90
20929;DHT22;21895;47.072;15.132;2023-07-13T06:38:37;25.70;99.90
20929;DHT22;21895;47.072;15.132;2023-07-13T06:41:05;25.60;99.90
20929;DHT22;21895;47.072;15.132;2023-07-13T06:43:33;25.90;99.90
20929;DHT22;21895;47.072;15.132;2023-07-13T06:46:00;25.80;99.40
20929;DHT22;21895;47.072;15.132;2023-07-13T06:48:27;25.70;99.90
20929;DHT22;21895;47.072;15.132;2023-07-13T06:50:54;25.80;99.90
20929;DHT22;21895;47.072;15.132;2023-07-13T06:53:21;25.80;99.90
20929;DHT22;21895;47.072;15.132;2023-07-13T06:55:48;25.80;99.90
20929;DHT22;21895;47.072;15.132;2023-07-13T06:58:17;26.20;99.90
20929;DHT22;21895;47.072;15.132;2023-07-13T07:00:44;26.30;99.40
20929;DHT22;21895;47.072;15.132;2023-07-13T07:03:11;26.40;99.90
20929;DHT22;21895;47.072;15.132;2023-07-13T07:05:38;26.50;99.90
20929;DHT22;21895;47.072;15.132;2023-07-13T07:08:05;26.60;99.90
20929;DHT22;21895;47.072;15.132;2023-07-13T07:10:31;26.70;99.90
20929;DHT22;21895;47.072;15.132;2023-07-13T07:12:58;27.00;99.30
20929;DHT22;21895;47.072;15.132;2023-07-13T07:15:25;27.10;98.10
20929;DHT22;21895;47.072;15.132;2023-07-13T07:17:53;27.00;97.70
20929;DHT22;21895;47.072;15.132;2023-07-13T07:20:19;27.00;97.80
20929;DHT22;21895;47.072;15.132;2023-07-13T07:22:46;26.80;98.50
20929;DHT22;21895;47.072;15.132;2023-07-13T07:25:14;26.80;99.00
20929;DHT22;21895;47.072;15.132;2023-07-13T07:27:40;27.20;99.10
20929;DHT22;21895;47.072;15.132;2023-07-13T07:30:10;27.50;98.40
20929;DHT22;21895;47.072;15.132;2023-07-13T07:32:40;27.70;97.40
20929;DHT22;21895;47.072;15.132;2023-07-13T07:35:10;27.40;97.00
20929;DHT22;21895;47.072;15.132;2023-07-13T07:37:37;27.30;98.20
20929;DHT22;21895;47.072;15.132;2023-07-13T07:40:08;27.50;96.20
20929;DHT22;21895;47.072;15.132;2023-07-13T07:42:37;27.40;96.30
20929;DHT22;21895;47.072;15.132;2023-07-13T07:45:04;27.30;97.50
20929;DHT22;21895;47.072;15.132;2023-07-13T07:47:31;27.50;94.20
20929;DHT22;21895;47.072;15.132;2023-07-13T07:49:57;27.60;93.40
20929;DHT22;21895;47.072;15.132;2023-07-13T07:52:24;27.60;95.10
20929;DHT22;21895;47.072;15.132;2023-07-13T07:54:51;27.70;93.60
20929;DHT22;21895;47.072;15.132;2023-07-13T07:57:20;27.80;90.90
20929;DHT22;21895;47.072;15.132;2023-07-13T07:59:50;28.00;92.10
20929;DHT22;21895;47.072;15.132;2023-07-13T08:02:19;28.10;90.80
20929;DHT22;21895;47.072;15.132;2023-07-13T08:04:49;28.20;92.90
20929;DHT22;21895;47.072;15.132;2023-07-13T08:07:19;28.20;91.60
20929;DHT22;21895;47.072;15.132;2023-07-13T08:09:46;28.30;90.80
20929;DHT22;21895;47.072;15.132;2023-07-13T08:12:13;28.40;91.70
20929;DHT22;21895;47.072;15.132;2023-07-13T08:14:42;28.40;90.20
20929;DHT22;21895;47.072;15.132;2023-07-13T08:17:20;28.30;89.80
20929;DHT22;21895;47.072;15.132;2023-07-13T08:19:47;28.60;91.00
20929;DHT22;21895;47.072;15.132;2023-07-13T08:22:13;28.80;90.20
20929;DHT22;21895;47.072;15.132;2023-07-13T08:24:40;29.00;86.60
20929;DHT22;21895;47.072;15.132;2023-07-13T08:27:08;29.00;89.20
20929;DHT22;21895;47.072;15.132;2023-07-13T08:29:37;29.00;88.30
20929;DHT22;21895;47.072;15.132;2023-07-13T08:32:06;29.00;90.00
20929;DHT22;21895;47.072;15.132;2023-07-13T08:34:35;29.00;88.30
20929;DHT22;21895;47.072;15.132;2023-07-13T08:37:02;28.90;86.10
20929;DHT22;21895;47.072;15.132;2023-07-13T08:39:31;28.90;84.80
20929;DHT22;21895;47.072;15.132;2023-07-13T08:42:03;28.90;86.40
20929;DHT22;21895;47.072;15.132;2023-07-13T08:47:51;28.90;85.10
20929;DHT22;21895;47.072;15.132;2023-07-13T08:50:33;28.90;85.30
20929;DHT22;21895;47.072;15.132;2023-07-13T08:53:37;29.00;83.50
20929;DHT22;21895;47.072;15.132;2023-07-13T08:56:14;28.70;85.60
20929;DHT22;21895;47.072;15.132;2023-07-13T08:58:45;28.80;89.20
20929;DHT22;21895;47.072;15.132;2023-07-13T09:04:57;28.90;84.70
20929;DHT22;21895;47.072;15.132;2023-07-13T09:08:30;29.20;84.40
20929;DHT22;21895;47.072;15.132;2023-07-13T09:17:28;29.70;87.00
20929;DHT22;21895;47.072;15.132;2023-07-13T09:20:37;29.70;87.40
20929;DHT22;21895;47.072;15.132;2023-07-13T09:23:14;29.80;86.70
20929;DHT22;21895;47.072;15.132;2023-07-13T09:25:47;29.80;86.90
20929;DHT22;21895;47.072;15.132;2023-07-13T09:28:29;29.80;88.80
20929;DHT22;21895;47.072;15.132;2023-07-13T09:31:20;29.80;88.30
20929;DHT22;21895;47.072;15.132;2023-07-13T09:33:52;29.90;85.90
20929;DHT22;21895;47.072;15.132;2023-07-13T09:36:30;30.00;85.10
20929;DHT22;21895;47.072;15.132;2023-07-13T09:39:42;30.00;85.10
20929;DHT22;21895;47.072;15.132;2023-07-13T09:42:18;30.00;86.90
20929;DHT22;21895;47.072;15.132;2023-07-13T09:44:53;30.10;85.30
20929;DHT22;21895;47.072;15.132;2023-07-13T09:47:28;30.30;88.90
20929;DHT22;21895;47.072;15.132;2023-07-13T09:50:14;30.40;88.70
20929;DHT22;21895;47.072;15.132;2023-07-13T09:52:49;30.50;86.80
20929;DHT22;21895;47.072;15.132;2023-07-13T09:55:50;30.30;89.00
20929;DHT22;21895;47.072;15.132;2023-07-13T09:58:23;30.40;89.20
20929;DHT22;21895;47.072;15.132;2023-07-13T10:01:03;30.50;90.10
20929;DHT22;21895;47.072;15.132;2023-07-13T10:03:35;30.60;89.30
20929;DHT22;21895;47.072;15.132;2023-07-13T10:06:18;30.50;90.10
20929;DHT22;21895;47.072;15.132;2023-07-13T10:08:49;30.20;90.60
20929;DHT22;21895;47.072;15.132;2023-07-13T10:11:27;30.30;90.10
20929;DHT22;21895;47.072;15.132;2023-07-13T10:14:16;30.40;89.70
20929;DHT22;21895;47.072;15.132;2023-07-13T10:16:47;30.40;89.10
20929;DHT22;21895;47.072;15.132;2023-07-13T10:19:22;30.20;89.80
20929;DHT22;21895;47.072;15.132;2023-07-13T10:21:57;30.20;90.30
20929;DHT22;21895;47.072;15.132;2023-07-13T10:24:29;30.10;90.50
20929;DHT22;21895;47.072;15.132;2023-07-13T10:27:15;30.20;91.20
20929;DHT22;21895;47.072;15.132;2023-07-13T10:29:48;30.20;90.90
20929;DHT22;21895;47.072;15.132;2023-07-13T10:32:22;30.30;91.70
20929;DHT22;21895;47.072;15.132;2023-07-13T10:34:51;30.30;91.10
20929;DHT22;21895;47.072;15.132;2023-07-13T10:37:31;30.40;90.70
20929;DHT22;21895;47.072;15.132;2023-07-13T10:40:06;30.30;91.70
20929;DHT22;21895;47.072;15.132;2023-07-13T10:42:43;30.30;91.30
20929;DHT22;21895;47.072;15.132;2023-07-13T10:45:14;30.40;91.10
20929;DHT22;21895;47.072;15.132;2023-07-13T10:47:44;30.30;90.40
20929;DHT22;21895;47.072;15.132;2023-07-13T10:50:24;30.30;91.10
20929;DHT22;21895;47.072;15.132;2023-07-13T10:52:55;30.30;91.80
20929;DHT22;21895;47.072;15.132;2023-07-13T10:59:27;30.10;90.50
20929;DHT22;21895;47.072;15.132;2023-07-13T11:01:57;30.10;91.00
20929;DHT22;21895;47.072;15.132;2023-07-13T11:07:10;30.10;90.40
20929;DHT22;21895;47.072;15.132;2023-07-13T11:09:52;30.10;90.30
20929;DHT22;21895;47.072;15.132;2023-07-13T11:12:52;30.20;90.90
20929;DHT22;21895;47.072;15.132;2023-07-13T11:15:44;30.10;90.70
20929;DHT22;21895;47.072;15.132;2023-07-13T11:18:22;29.80;91.70
20929;DHT22;21895;47.072;15.132;2023-07-13T11:20:53;29.60;91.80
20929;DHT22;21895;47.072;15.132;2023-07-13T11:23:42;29.70;91.70
20929;DHT22;21895;47.072;15.132;2023-07-13T11:26:51;29.70;91.60
20929;DHT22;21895;47.072;15.132;2023-07-13T11:29:42;29.70;91.60
20929;DHT22;21895;47.072;15.132;2023-07-13T11:32:25;29.40;91.50
20929;DHT22;21895;47.072;15.132;2023-07-13T11:34:56;29.40;91.20
20929;DHT22;21895;47.072;15.132;2023-07-13T11:37:24;29.30;91.40
20929;DHT22;21895;47.072;15.132;2023-07-13T11:39:52;29.20;91.20
20929;DHT22;21895;47.072;15.132;2023-07-13T11:42:21;29.10;91.10
20929;DHT22;21895;47.072;15.132;2023-07-13T11:44:50;29.10;91.30
20929;DHT22;21895;47.072;15.132;2023-07-13T11:47:34;29.20;91.50
20929;DHT22;21895;47.072;15.132;2023-07-13T11:50:21;29.30;90.80
20929;DHT22;21895;47.072;15.132;2023-07-13T11:52:51;29.30;90.90
20929;DHT22;21895;47.072;15.132;2023-07-13T11:55:21;29.10;90.60
20929;DHT22;21895;47.072;15.132;2023-07-13T11:57:58;29.10;92.00
20929;DHT22;21895;47.072;15.132;2023-07-13T12:00:29;28.90;91.30
20929;DHT22;21895;47.072;15.132;2023-07-13T12:03:02;28.70;91.20
20929;DHT22;21895;47.072;15.132;2023-07-13T12:05:31;28.40;92.70
20929;DHT22;21895;47.072;15.132;2023-07-13T12:07:58;28.20;93.40
20929;DHT22;21895;47.072;15.132;2023-07-13T12:10:27;27.90;94.20
20929;DHT22;21895;47.072;15.132;2023-07-13T12:12:57;27.60;95.20
20929;DHT22;21895;47.072;15.132;2023-07-13T12:16:01;27.30;94.20
20929;DHT22;21895;47.072;15.132;2023-07-13T12:18:30;27.00;95.50
20929;DHT22;21895;47.072;15.132;2023-07-13T12:21:00;27.00;97.00
20929;DHT22;21895;47.072;15.132;2023-07-13T12:23:34;27.00;97.40
20929;DHT22;21895;47.072;15.132;2023-07-13T12:26:03;27.00;96.90
20929;DHT22;21895;47.072;15.132;2023-07-13T12:28:36;27.10;97.60
20929;DHT22;21895;47.072;15.132;2023-07-13T12:31:30;27.10;97.60
20929;DHT22;21895;47.072;15.132;2023-07-13T12:34:13;27.20;98.20
20929;DHT22;21895;47.072;15.132;2023-07-13T12:36:56;27.20;99.70
20929;DHT22;21895;47.072;15.132;2023-07-13T12:39:33;27.00;99.90
20929;DHT22;21895;47.072;15.132;2023-07-13T12:43:53;27.10;99.90
20929;DHT22;21895;47.072;15.132;2023-07-13T12:46:23;27.20;98.40
20929;DHT22;21895;47.072;15.132;2023-07-13T12:48:54;26.90;99.90
20929;DHT22;21895;47.072;15.132;2023-07-13T12:51:44;26.70;97.70
20929;DHT22;21895;47.072;15.132;2023-07-13T12:54:16;26.80;99.90
20929;DHT22;21895;47.072;15.132;2023-07-13T12:56:45;26.60;99.90
20929;DHT22;21895;47.072;15.132;2023-07-13T12:59:20;26.50;99.90
20929;DHT22;21895;47.072;15.132;2023-07-13T13:01:49;26.20;99.90
20929;DHT22;21895;47.072;15.132;2023-07-13T13:04:16;26.10;99.90
20929;DHT22;21895;47.072;15.132;2023-07-13T13:06:48;25.80;99.90
20929;DHT22;21895;47.072;15.132;2023-07-13T13:09:17;25.60;99.90
20929;DHT22;21895;47.072;15.132;2023-07-13T13:11:46;25.40;99.90
20929;DHT22;21895;47.072;15.132;2023-07-13T13:14:12;25.30;99.90
20929;DHT22;21895;47.072;15.132;2023-07-13T13:16:46;25.10;99.90
20929;DHT22;21895;47.072;15.132;2023-07-13T13:19:28;24.90;99.90
20929;DHT22;21895;47.072;15.132;2023-07-13T13:21:56;24.80;99.90
20929;DHT22;21895;47.072;15.132;2023-07-13T13:24:26;24.60;99.90
20929;DHT22;21895;47.072;15.132;2023-07-13T13:26:54;24.50;99.90
20929;DHT22;21895;47.072;15.132;2023-07-13T13:29:24;24.40;99.90
20929;DHT22;21895;47.072;15.132;2023-07-13T13:31:53;24.50;99.90
20929;DHT22;21895;47.072;15.132;2023-07-13T13:34:22;24.40;99.90
20929;DHT22;21895;47.072;15.132;2023-07-13T13:36:53;24.50;99.90
20929;DHT22;21895;47.072;15.132;2023-07-13T13:39:35;24.70;99.90
20929;DHT22;21895;47.072;15.132;2023-07-13T13:42:03;24.90;99.90
20929;DHT22;21895;47.072;15.132;2023-07-13T13:44:30;24.90;99.90
20929;DHT22;21895;47.072;15.132;2023-07-13T13:46:57;25.00;99.90
20929;DHT22;21895;47.072;15.132;2023-07-13T13:49:26;25.30;99.90
20929;DHT22;21895;47.072;15.132;2023-07-13T13:51:53;25.50;99.90
20929;DHT22;21895;47.072;15.132;2023-07-13T13:54:21;25.60;99.90
20929;DHT22;21895;47.072;15.132;2023-07-13T13:56:51;25.90;99.90
20929;DHT22;21895;47.072;15.132;2023-07-13T13:59:19;26.00;99.80
20929;DHT22;21895;47.072;15.132;2023-07-13T14:01:47;26.10;99.90
20929;DHT22;21895;47.072;15.132;2023-07-13T14:04:17;26.20;99.90
20929;DHT22;21895;47.072;15.132;2023-07-13T14:06:46;26.50;99.90
20929;DHT22;21895;47.072;15.132;2023-07-13T14:09:15;26.70;99.50
20929;DHT22;21895;47.072;15.132;2023-07-13T14:11:44;26.50;99.60
20929;DHT22;21895;47.072;15.132;2023-07-13T14:14:21;26.20;99.20
20929;DHT22;21895;47.072;15.132;2023-07-13T14:16:50;26.00;99.10
20929;DHT22;21895;47.072;15.132;2023-07-13T14:19:19;25.90;99.40
20929;DHT22;21895;47.072;15.132;2023-07-13T14:21:46;25.50;99.30
20929;DHT22;21895;47.072;15.132;2023-07-13T14:24:15;25.20;99.90
20929;DHT22;21895;47.072;15.132;2023-07-13T14:26:42;24.80;99.90
20929;DHT22;21895;47.072;15.132;2023-07-13T14:29:14;24.70;99.90
20929;DHT22;21895;47.072;15.132;2023-07-13T14:31:46;24.40;99.90
20929;DHT22;21895;47.072;15.132;2023-07-13T14:34:13;24.30;99.90
20929;DHT22;21895;47.072;15.132;2023-07-13T14:36:42;24.20;99.90
20929;DHT22;21895;47.072;15.132;2023-07-13T14:39:22;24.10;99.90
20929;DHT22;21895;47.072;15.132;2023-07-13T14:41:52;24.10;99.90
20929;DHT22;21895;47.072;15.132;2023-07-13T14:44:30;24.00;99.90
20929;DHT22;21895;47.072;15.132;2023-07-13T14:47:03;23.90;99.90
20929;DHT22;21895;47.072;15.132;2023-07-13T14:49:42;23.90;99.90
20929;DHT22;21895;47.072;15.132;2023-07-13T14:52:16;23.90;99.90
20929;DHT22;21895;47.072;15.132;2023-07-13T14:54:44;23.80;99.90
20929;DHT22;21895;47.072;15.132;2023-07-13T14:57:19;23.60;99.90
20929;DHT22;21895;47.072;15.132;2023-07-13T14:59:47;23.50;99.90
20929;DHT22;21895;47.072;15.132;2023-07-13T15:02:29;23.30;99.90
20929;DHT22;21895;47.072;15.132;2023-07-13T15:04:59;22.80;99.90
20929;DHT22;21895;47.072;15.132;2023-07-13T15:07:26;22.30;99.90
20929;DHT22;21895;47.072;15.132;2023-07-13T15:09:53;21.90;99.90
20929;DHT22;21895;47.072;15.132;2023-07-13T15:12:21;21.60;99.90
20929;DHT22;21895;47.072;15.132;2023-07-13T15:14:48;21.20;99.90
20929;DHT22;21895;47.072;15.132;2023-07-13T15:17:33;20.90;99.90
20929;DHT22;21895;47.072;15.132;2023-07-13T15:20:18;20.60;99.90
20929;DHT22;21895;47.072;15.132;2023-07-13T15:22:59;20.00;99.90
20929;DHT22;21895;47.072;15.132;2023-07-13T15:25:28;19.00;99.90
20929;DHT22;21895;47.072;15.132;2023-07-13T15:27:59;18.60;99.90
20929;DHT22;21895;47.072;15.132;2023-07-13T15:30:33;18.50;99.90
20929;DHT22;21895;47.072;15.132;2023-07-13T15:33:25;18.60;99.90
20929;DHT22;21895;47.072;15.132;2023-07-13T15:35:55;18.80;99.90
20929;DHT22;21895;47.072;15.132;2023-07-13T15:38:28;18.90;99.90
20929;DHT22;21895;47.072;15.132;2023-07-13T15:40:56;19.10;99.90
20929;DHT22;21895;47.072;15.132;2023-07-13T15:43:23;19.40;99.90
20929;DHT22;21895;47.072;15.132;2023-07-13T15:45:49;19.60;99.90
20929;DHT22;21895;47.072;15.132;2023-07-13T15:48:19;19.60;99.90
20929;DHT22;21895;47.072;15.132;2023-07-13T15:50:52;19.70;99.90
20929;DHT22;21895;47.072;15.132;2023-07-13T15:53:26;19.80;99.90
20929;DHT22;21895;47.072;15.132;2023-07-13T15:55:59;19.60;99.90
20929;DHT22;21895;47.072;15.132;2023-07-13T15:58:28;19.50;99.90
20929;DHT22;21895;47.072;15.132;2023-07-13T16:00:55;19.40;99.90